sensor_id;sensor_type;location;lat;lon;timestamp;P1;durP1;ratioP1;P2;durP2;ratioP2
67352;SDS011;54238;52.278;21.056;2023-02-15T00:02:07;41.90;;;26.80;;
67352;SDS011;54238;52.278;21.056;2023-02-15T00:04:35;39.00;;;22.40;;
67352;SDS011;54238;52.278;21.056;2023-02-15T00:07:16;37.60;;;20.90;;
67352;SDS011;54238;52.278;21.056;2023-02-15T00:09:48;39.40;;;23.80;;
67352;SDS011;54238;52.278;21.056;2023-02-15T00:12:16;42.60;;;22.70;;
67352;SDS011;54238;52.278;21.056;2023-02-15T00:17:50;40.60;;;23.50;;
67352;SDS011;54238;52.278;21.056;2023-02-15T00:20:20;41.20;;;25.00;;
67352;SDS011;54238;52.278;21.056;2023-02-15T00:22:52;42.20;;;25.40;;
67352;SDS011;54238;52.278;21.056;2023-02-15T00:25:28;46.60;;;28.10;;
67352;SDS011;54238;52.278;21.056;2023-02-15T00:27:59;39.80;;;25.60;;
67352;SDS011;54238;52.278;21.056;2023-02-15T00:30:29;41.60;;;25.90;;
67352;SDS011;54238;52.278;21.056;2023-02-15T00:33:03;48.30;;;29.50;;
67352;SDS011;54238;52.278;21.056;2023-02-15T00:35:35;41.30;;;26.10;;
67352;SDS011;54238;52.278;21.056;2023-02-15T00:38:09;44.60;;;26.20;;
67352;SDS011;54238;52.278;21.056;2023-02-15T00:40:37;38.40;;;23.20;;
67352;SDS011;54238;52.278;21.056;2023-02-15T00:43:04;38.80;;;26.30;;
67352;SDS011;54238;52.278;21.056;2023-02-15T00:45:30;42.50;;;25.00;;
67352;SDS011;54238;52.278;21.056;2023-02-15T00:48:00;44.60;;;23.50;;
67352;SDS011;54238;52.278;21.056;2023-02-15T00:50:29;42.30;;;26.70;;
67352;SDS011;54238;52.278;21.056;2023-02-15T00:53:00;47.20;;;29.20;;
67352;SDS011;54238;52.278;21.056;2023-02-15T00:55:28;39.90;;;23.50;;
67352;SDS011;54238;52.278;21.056;2023-02-15T00:57:58;47.80;;;26.00;;
67352;SDS011;54238;52.278;21.056;2023-02-15T01:03:35;39.50;;;23.90;;
67352;SDS011;54238;52.278;21.056;2023-02-15T01:06:10;36.60;;;22.60;;
67352;SDS011;54238;52.278;21.056;2023-02-15T01:08:38;42.90;;;25.50;;
67352;SDS011;54238;52.278;21.056;2023-02-15T01:11:11;39.70;;;26.40;;
67352;SDS011;54238;52.278;21.056;2023-02-15T01:13:42;43.30;;;29.40;;
67352;SDS011;54238;52.278;21.056;2023-02-15T01:16:14;52.80;;;30.10;;
67352;SDS011;54238;52.278;21.056;2023-02-15T01:18:49;47.30;;;27.50;;
67352;SDS011;54238;52.278;21.056;2023-02-15T01:21:20;49.70;;;28.70;;
67352;SDS011;54238;52.278;21.056;2023-02-15T01:23:52;39.30;;;24.80;;
67352;SDS011;54238;52.278;21.056;2023-02-15T01:26:28;43.50;;;28.60;;
67352;SDS011;54238;52.278;21.056;2023-02-15T01:28:57;48.40;;;30.70;;
67352;SDS011;54238;52.278;21.056;2023-02-15T01:31:32;39.50;;;23.80;;
67352;SDS011;54238;52.278;21.056;2023-02-15T01:34:01;41.40;;;27.10;;
67352;SDS011;54238;52.278;21.056;2023-02-15T01:36:41;49.50;;;29.10;;
67352;SDS011;54238;52.278;21.056;2023-02-15T01:39:10;50.40;;;31.00;;
67352;SDS011;54238;52.278;21.056;2023-02-15T01:41:42;46.50;;;29.50;;
67352;SDS011;54238;52.278;21.056;2023-02-15T01:47:36;48.30;;;27.10;;
67352;SDS011;54238;52.278;21.056;2023-02-15T01:55:53;55.10;;;31.70;;
67352;SDS011;54238;52.278;21.056;2023-02-15T01:58:35;54.80;;;31.70;;
67352;SDS011;54238;52.278;21.056;2023-02-15T02:01:07;52.00;;;30.90;;
67352;SDS011;54238;52.278;21.056;2023-02-15T02:06:27;53.20;;;32.70;;
67352;SDS011;54238;52.278;21.056;2023-02-15T02:08:57;56.30;;;32.40;;
67352;SDS011;54238;52.278;21.056;2023-02-15T02:11:25;56.50;;;33.60;;
67352;SDS011;54238;52.278;21.056;2023-02-15T02:13:53;54.40;;;31.80;;
67352;SDS011;54238;52.278;21.056;2023-02-15T02:34:16;61.60;;;35.70;;
67352;SDS011;54238;52.278;21.056;2023-02-15T02:46:32;65.70;;;36.60;;
67352;SDS011;54238;52.278;21.056;2023-02-15T02:49:03;59.70;;;34.20;;
67352;SDS011;54238;52.278;21.056;2023-02-15T02:51:36;59.30;;;35.10;;
67352;SDS011;54238;52.278;21.056;2023-02-15T02:54:05;55.60;;;35.30;;
67352;SDS011;54238;52.278;21.056;2023-02-15T02:56:39;62.00;;;35.50;;
67352;SDS011;54238;52.278;21.056;2023-02-15T02:59:25;56.10;;;35.40;;
67352;SDS011;54238;52.278;21.056;2023-02-15T03:02:19;61.40;;;35.90;;
67352;SDS011;54238;52.278;21.056;2023-02-15T03:05:01;68.10;;;35.80;;
67352;SDS011;54238;52.278;21.056;2023-02-15T03:07:38;55.10;;;35.20;;
67352;SDS011;54238;52.278;21.056;2023-02-15T03:10:08;59.50;;;36.10;;
67352;SDS011;54238;52.278;21.056;2023-02-15T03:12:39;63.70;;;36.70;;
67352;SDS011;54238;52.278;21.056;2023-02-15T03:15:20;55.90;;;34.70;;
67352;SDS011;54238;52.278;21.056;2023-02-15T03:17:57;56.50;;;35.40;;
67352;SDS011;54238;52.278;21.056;2023-02-15T03:20:33;56.40;;;36.60;;
67352;SDS011;54238;52.278;21.056;2023-02-15T03:23:06;55.70;;;35.10;;
67352;SDS011;54238;52.278;21.056;2023-02-15T03:25:42;63.10;;;36.90;;
67352;SDS011;54238;52.278;21.056;2023-02-15T03:28:21;60.60;;;35.60;;
67352;SDS011;54238;52.278;21.056;2023-02-15T03:31:00;62.30;;;36.70;;
67352;SDS011;54238;52.278;21.056;2023-02-15T03:33:30;64.00;;;34.50;;
67352;SDS011;54238;52.278;21.056;2023-02-15T03:36:21;57.70;;;32.30;;
67352;SDS011;54238;52.278;21.056;2023-02-15T03:41:48;59.10;;;35.40;;
67352;SDS011;54238;52.278;21.056;2023-02-15T03:44:39;60.80;;;34.40;;
67352;SDS011;54238;52.278;21.056;2023-02-15T03:47:28;60.50;;;35.70;;
67352;SDS011;54238;52.278;21.056;2023-02-15T03:50:02;58.50;;;34.10;;
67352;SDS011;54238;52.278;21.056;2023-02-15T03:53:05;62.60;;;35.90;;
67352;SDS011;54238;52.278;21.056;2023-02-15T03:55:36;63.70;;;35.00;;
67352;SDS011;54238;52.278;21.056;2023-02-15T03:58:05;56.00;;;33.10;;
67352;SDS011;54238;52.278;21.056;2023-02-15T04:01:01;53.20;;;32.10;;
67352;SDS011;54238;52.278;21.056;2023-02-15T04:04:02;62.70;;;34.70;;
67352;SDS011;54238;52.278;21.056;2023-02-15T04:06:41;50.00;;;30.70;;
67352;SDS011;54238;52.278;21.056;2023-02-15T04:09:08;64.50;;;34.90;;
67352;SDS011;54238;52.278;21.056;2023-02-15T04:11:53;55.10;;;33.80;;
67352;SDS011;54238;52.278;21.056;2023-02-15T04:14:20;50.40;;;28.00;;
67352;SDS011;54238;52.278;21.056;2023-02-15T04:17:07;56.10;;;31.80;;
67352;SDS011;54238;52.278;21.056;2023-02-15T04:19:37;54.70;;;30.20;;
67352;SDS011;54238;52.278;21.056;2023-02-15T04:22:25;52.30;;;26.30;;
67352;SDS011;54238;52.278;21.056;2023-02-15T04:25:15;50.70;;;29.90;;
67352;SDS011;54238;52.278;21.056;2023-02-15T04:27:47;49.10;;;31.10;;
67352;SDS011;54238;52.278;21.056;2023-02-15T04:30:17;54.00;;;31.40;;
67352;SDS011;54238;52.278;21.056;2023-02-15T04:32:49;60.50;;;33.60;;
67352;SDS011;54238;52.278;21.056;2023-02-15T04:35:17;59.90;;;32.50;;
67352;SDS011;54238;52.278;21.056;2023-02-15T04:37:47;54.40;;;33.20;;
67352;SDS011;54238;52.278;21.056;2023-02-15T04:40:15;62.60;;;32.80;;
67352;SDS011;54238;52.278;21.056;2023-02-15T04:42:49;48.10;;;30.60;;
67352;SDS011;54238;52.278;21.056;2023-02-15T04:45:21;56.60;;;31.50;;
67352;SDS011;54238;52.278;21.056;2023-02-15T04:47:49;45.10;;;27.30;;
67352;SDS011;54238;52.278;21.056;2023-02-15T04:50:18;44.00;;;25.20;;
67352;SDS011;54238;52.278;21.056;2023-02-15T04:52:46;45.90;;;27.80;;
67352;SDS011;54238;52.278;21.056;2023-02-15T04:55:18;48.80;;;28.40;;
67352;SDS011;54238;52.278;21.056;2023-02-15T04:57:45;47.20;;;29.00;;
67352;SDS011;54238;52.278;21.056;2023-02-15T05:00:18;44.80;;;25.60;;
67352;SDS011;54238;52.278;21.056;2023-02-15T05:02:48;41.60;;;25.30;;
67352;SDS011;54238;52.278;21.056;2023-02-15T05:05:18;39.30;;;24.60;;
67352;SDS011;54238;52.278;21.056;2023-02-15T05:10:43;28.40;;;17.00;;
67352;SDS011;54238;52.278;21.056;2023-02-15T05:13:13;43.30;;;23.30;;
67352;SDS011;54238;52.278;21.056;2023-02-15T05:15:49;38.60;;;24.00;;
67352;SDS011;54238;52.278;21.056;2023-02-15T05:18:23;34.30;;;21.10;;
67352;SDS011;54238;52.278;21.056;2023-02-15T05:20:52;38.40;;;21.30;;
67352;SDS011;54238;52.278;21.056;2023-02-15T05:23:25;36.20;;;20.70;;
67352;SDS011;54238;52.278;21.056;2023-02-15T05:25:54;37.90;;;23.20;;
67352;SDS011;54238;52.278;21.056;2023-02-15T05:28:43;43.20;;;26.00;;
67352;SDS011;54238;52.278;21.056;2023-02-15T05:31:13;40.30;;;22.30;;
67352;SDS011;54238;52.278;21.056;2023-02-15T05:33:49;63.90;;;29.50;;
67352;SDS011;54238;52.278;21.056;2023-02-15T05:36:18;47.40;;;25.10;;
67352;SDS011;54238;52.278;21.056;2023-02-15T05:38:46;52.20;;;26.90;;
67352;SDS011;54238;52.278;21.056;2023-02-15T05:41:17;46.60;;;25.50;;
67352;SDS011;54238;52.278;21.056;2023-02-15T05:43:48;44.40;;;26.30;;
67352;SDS011;54238;52.278;21.056;2023-02-15T05:46:17;44.30;;;28.10;;
67352;SDS011;54238;52.278;21.056;2023-02-15T05:48:49;39.80;;;26.30;;
67352;SDS011;54238;52.278;21.056;2023-02-15T05:51:18;49.70;;;29.10;;
67352;SDS011;54238;52.278;21.056;2023-02-15T05:53:50;45.00;;;27.00;;
67352;SDS011;54238;52.278;21.056;2023-02-15T05:56:19;47.50;;;27.00;;
67352;SDS011;54238;52.278;21.056;2023-02-15T05:58:47;54.60;;;29.10;;
67352;SDS011;54238;52.278;21.056;2023-02-15T06:01:20;44.80;;;27.60;;
67352;SDS011;54238;52.278;21.056;2023-02-15T06:03:52;50.40;;;29.60;;
67352;SDS011;54238;52.278;21.056;2023-02-15T06:06:24;53.70;;;29.30;;
67352;SDS011;54238;52.278;21.056;2023-02-15T06:08:56;45.10;;;25.30;;
67352;SDS011;54238;52.278;21.056;2023-02-15T06:11:26;42.60;;;25.20;;
67352;SDS011;54238;52.278;21.056;2023-02-15T06:13:53;41.40;;;25.40;;
67352;SDS011;54238;52.278;21.056;2023-02-15T06:16:22;39.30;;;22.00;;
67352;SDS011;54238;52.278;21.056;2023-02-15T06:18:51;38.70;;;23.20;;
67352;SDS011;54238;52.278;21.056;2023-02-15T06:21:21;39.80;;;24.20;;
67352;SDS011;54238;52.278;21.056;2023-02-15T06:23:48;34.60;;;22.60;;
67352;SDS011;54238;52.278;21.056;2023-02-15T06:26:17;40.00;;;22.40;;
67352;SDS011;54238;52.278;21.056;2023-02-15T06:28:47;31.50;;;20.30;;
67352;SDS011;54238;52.278;21.056;2023-02-15T06:31:16;37.00;;;21.60;;
67352;SDS011;54238;52.278;21.056;2023-02-15T06:33:46;42.50;;;24.00;;
67352;SDS011;54238;52.278;21.056;2023-02-15T06:36:15;41.50;;;25.10;;
67352;SDS011;54238;52.278;21.056;2023-02-15T06:38:47;41.20;;;24.50;;
67352;SDS011;54238;52.278;21.056;2023-02-15T06:41:16;43.40;;;25.50;;
67352;SDS011;54238;52.278;21.056;2023-02-15T06:43:49;44.90;;;25.30;;
67352;SDS011;54238;52.278;21.056;2023-02-15T06:46:19;40.80;;;25.90;;
67352;SDS011;54238;52.278;21.056;2023-02-15T06:48:46;37.90;;;23.80;;
67352;SDS011;54238;52.278;21.056;2023-02-15T06:51:13;35.50;;;22.50;;
67352;SDS011;54238;52.278;21.056;2023-02-15T06:53:42;39.70;;;23.90;;
67352;SDS011;54238;52.278;21.056;2023-02-15T06:56:14;45.10;;;25.40;;
67352;SDS011;54238;52.278;21.056;2023-02-15T06:58:44;37.90;;;23.20;;
67352;SDS011;54238;52.278;21.056;2023-02-15T07:01:18;42.10;;;25.80;;
67352;SDS011;54238;52.278;21.056;2023-02-15T07:03:46;37.40;;;24.30;;
67352;SDS011;54238;52.278;21.056;2023-02-15T07:06:15;38.10;;;23.50;;
67352;SDS011;54238;52.278;21.056;2023-02-15T07:08:45;34.10;;;22.50;;
67352;SDS011;54238;52.278;21.056;2023-02-15T07:11:14;38.40;;;22.10;;
67352;SDS011;54238;52.278;21.056;2023-02-15T07:14:02;42.00;;;22.60;;
67352;SDS011;54238;52.278;21.056;2023-02-15T07:16:32;38.00;;;22.40;;
67352;SDS011;54238;52.278;21.056;2023-02-15T07:18:59;33.90;;;19.80;;
67352;SDS011;54238;52.278;21.056;2023-02-15T07:21:28;29.40;;;19.30;;
67352;SDS011;54238;52.278;21.056;2023-02-15T07:23:56;27.90;;;17.50;;
67352;SDS011;54238;52.278;21.056;2023-02-15T07:26:31;37.10;;;22.10;;
67352;SDS011;54238;52.278;21.056;2023-02-15T07:28:58;29.30;;;19.20;;
67352;SDS011;54238;52.278;21.056;2023-02-15T07:31:31;37.50;;;24.20;;
67352;SDS011;54238;52.278;21.056;2023-02-15T07:34:01;37.40;;;20.60;;
67352;SDS011;54238;52.278;21.056;2023-02-15T07:36:31;34.20;;;21.20;;
67352;SDS011;54238;52.278;21.056;2023-02-15T07:39:00;45.30;;;24.00;;
67352;SDS011;54238;52.278;21.056;2023-02-15T07:41:30;43.10;;;25.30;;
67352;SDS011;54238;52.278;21.056;2023-02-15T07:43:57;41.00;;;24.60;;
67352;SDS011;54238;52.278;21.056;2023-02-15T07:46:26;41.50;;;24.70;;
67352;SDS011;54238;52.278;21.056;2023-02-15T07:48:54;45.40;;;25.70;;
67352;SDS011;54238;52.278;21.056;2023-02-15T07:51:23;36.90;;;21.10;;
67352;SDS011;54238;52.278;21.056;2023-02-15T07:53:50;40.60;;;25.20;;
67352;SDS011;54238;52.278;21.056;2023-02-15T07:56:18;41.90;;;24.10;;
67352;SDS011;54238;52.278;21.056;2023-02-15T07:58:50;38.50;;;22.10;;
67352;SDS011;54238;52.278;21.056;2023-02-15T08:01:35;30.50;;;16.80;;
67352;SDS011;54238;52.278;21.056;2023-02-15T08:04:07;34.90;;;18.90;;
67352;SDS011;54238;52.278;21.056;2023-02-15T08:06:41;35.50;;;20.60;;
67352;SDS011;54238;52.278;21.056;2023-02-15T08:09:11;39.80;;;24.40;;
67352;SDS011;54238;52.278;21.056;2023-02-15T08:11:44;43.60;;;26.30;;
67352;SDS011;54238;52.278;21.056;2023-02-15T08:16:50;38.00;;;23.40;;
67352;SDS011;54238;52.278;21.056;2023-02-15T08:21:59;35.00;;;20.20;;
67352;SDS011;54238;52.278;21.056;2023-02-15T08:24:33;35.50;;;22.30;;
67352;SDS011;54238;52.278;21.056;2023-02-15T08:27:05;41.70;;;22.50;;
67352;SDS011;54238;52.278;21.056;2023-02-15T08:29:37;35.60;;;19.20;;
67352;SDS011;54238;52.278;21.056;2023-02-15T08:32:10;28.60;;;17.30;;
67352;SDS011;54238;52.278;21.056;2023-02-15T08:34:41;33.60;;;19.30;;
67352;SDS011;54238;52.278;21.056;2023-02-15T08:37:13;31.00;;;19.80;;
67352;SDS011;54238;52.278;21.056;2023-02-15T08:39:40;41.00;;;23.30;;
67352;SDS011;54238;52.278;21.056;2023-02-15T08:42:11;38.30;;;23.20;;
67352;SDS011;54238;52.278;21.056;2023-02-15T08:44:38;41.40;;;23.10;;
67352;SDS011;54238;52.278;21.056;2023-02-15T08:47:09;40.60;;;22.60;;
67352;SDS011;54238;52.278;21.056;2023-02-15T08:49:36;49.00;;;27.50;;
67352;SDS011;54238;52.278;21.056;2023-02-15T08:52:05;41.80;;;22.10;;
67352;SDS011;54238;52.278;21.056;2023-02-15T08:54:34;42.30;;;23.80;;
67352;SDS011;54238;52.278;21.056;2023-02-15T08:57:01;44.20;;;25.30;;
67352;SDS011;54238;52.278;21.056;2023-02-15T08:59:33;42.20;;;23.10;;
67352;SDS011;54238;52.278;21.056;2023-02-15T09:02:00;46.90;;;27.60;;
67352;SDS011;54238;52.278;21.056;2023-02-15T09:04:34;43.70;;;26.10;;
67352;SDS011;54238;52.278;21.056;2023-02-15T09:07:04;54.60;;;30.30;;
67352;SDS011;54238;52.278;21.056;2023-02-15T09:09:35;58.20;;;30.50;;
67352;SDS011;54238;52.278;21.056;2023-02-15T09:12:02;53.20;;;29.20;;
67352;SDS011;54238;52.278;21.056;2023-02-15T09:14:30;53.80;;;28.80;;
67352;SDS011;54238;52.278;21.056;2023-02-15T09:16:57;51.80;;;24.60;;
67352;SDS011;54238;52.278;21.056;2023-02-15T09:19:24;49.60;;;24.60;;
67352;SDS011;54238;52.278;21.056;2023-02-15T09:21:54;51.20;;;25.80;;
67352;SDS011;54238;52.278;21.056;2023-02-15T09:24:25;38.10;;;18.90;;
67352;SDS011;54238;52.278;21.056;2023-02-15T09:26:54;39.50;;;22.40;;
67352;SDS011;54238;52.278;21.056;2023-02-15T09:29:21;37.50;;;20.00;;
67352;SDS011;54238;52.278;21.056;2023-02-15T09:31:50;40.50;;;20.80;;
67352;SDS011;54238;52.278;21.056;2023-02-15T09:34:21;45.40;;;23.90;;
67352;SDS011;54238;52.278;21.056;2023-02-15T09:36:50;44.40;;;23.10;;
67352;SDS011;54238;52.278;21.056;2023-02-15T09:39:25;36.20;;;20.40;;
67352;SDS011;54238;52.278;21.056;2023-02-15T09:50:52;29.30;;;15.10;;
67352;SDS011;54238;52.278;21.056;2023-02-15T09:56:53;31.00;;;18.30;;
67352;SDS011;54238;52.278;21.056;2023-02-15T09:59:34;33.60;;;18.70;;
67352;SDS011;54238;52.278;21.056;2023-02-15T10:02:56;27.60;;;15.80;;
67352;SDS011;54238;52.278;21.056;2023-02-15T10:13:43;26.00;;;14.30;;
67352;SDS011;54238;52.278;21.056;2023-02-15T10:16:45;29.80;;;15.70;;
67352;SDS011;54238;52.278;21.056;2023-02-15T10:27:52;34.70;;;19.70;;
67352;SDS011;54238;52.278;21.056;2023-02-15T10:30:43;36.80;;;18.90;;
67352;SDS011;54238;52.278;21.056;2023-02-15T10:33:23;27.40;;;15.10;;
67352;SDS011;54238;52.278;21.056;2023-02-15T10:39:16;31.00;;;15.70;;
67352;SDS011;54238;52.278;21.056;2023-02-15T10:42:30;31.00;;;15.00;;
67352;SDS011;54238;52.278;21.056;2023-02-15T10:45:28;32.50;;;16.80;;
67352;SDS011;54238;52.278;21.056;2023-02-15T10:50:49;33.40;;;18.70;;
67352;SDS011;54238;52.278;21.056;2023-02-15T10:53:22;36.60;;;19.70;;
67352;SDS011;54238;52.278;21.056;2023-02-15T11:01:57;29.70;;;17.20;;
67352;SDS011;54238;52.278;21.056;2023-02-15T11:04:53;31.90;;;18.70;;
67352;SDS011;54238;52.278;21.056;2023-02-15T11:15:36;30.90;;;15.60;;
67352;SDS011;54238;52.278;21.056;2023-02-15T11:21:10;35.40;;;17.70;;
67352;SDS011;54238;52.278;21.056;2023-02-15T11:23:44;31.00;;;17.40;;
67352;SDS011;54238;52.278;21.056;2023-02-15T11:26:36;31.60;;;16.60;;
67352;SDS011;54238;52.278;21.056;2023-02-15T11:29:32;26.70;;;15.10;;
67352;SDS011;54238;52.278;21.056;2023-02-15T11:32:13;25.00;;;13.50;;
67352;SDS011;54238;52.278;21.056;2023-02-15T11:40:27;32.50;;;18.50;;
67352;SDS011;54238;52.278;21.056;2023-02-15T11:43:06;25.90;;;15.90;;
67352;SDS011;54238;52.278;21.056;2023-02-15T11:45:45;33.90;;;18.80;;
67352;SDS011;54238;52.278;21.056;2023-02-15T11:48:14;30.50;;;18.50;;
67352;SDS011;54238;52.278;21.056;2023-02-15T11:50:47;28.90;;;17.20;;
67352;SDS011;54238;52.278;21.056;2023-02-15T11:53:20;32.90;;;16.80;;
67352;SDS011;54238;52.278;21.056;2023-02-15T11:55:56;30.80;;;17.50;;
67352;SDS011;54238;52.278;21.056;2023-02-15T12:01:15;34.60;;;18.60;;
67352;SDS011;54238;52.278;21.056;2023-02-15T12:09:33;44.00;;;21.80;;
67352;SDS011;54238;52.278;21.056;2023-02-15T12:12:27;34.80;;;19.40;;
67352;SDS011;54238;52.278;21.056;2023-02-15T12:14:59;40.00;;;21.10;;
67352;SDS011;54238;52.278;21.056;2023-02-15T12:23:05;32.60;;;17.80;;
67352;SDS011;54238;52.278;21.056;2023-02-15T12:28:42;44.40;;;22.30;;
67352;SDS011;54238;52.278;21.056;2023-02-15T12:31:27;40.70;;;23.00;;
67352;SDS011;54238;52.278;21.056;2023-02-15T12:34:07;41.50;;;22.00;;
67352;SDS011;54238;52.278;21.056;2023-02-15T12:36:53;43.10;;;22.30;;
67352;SDS011;54238;52.278;21.056;2023-02-15T12:42:15;38.80;;;19.60;;
67352;SDS011;54238;52.278;21.056;2023-02-15T12:45:00;38.90;;;19.30;;
67352;SDS011;54238;52.278;21.056;2023-02-15T12:47:32;40.00;;;19.80;;
67352;SDS011;54238;52.278;21.056;2023-02-15T12:52:32;44.40;;;24.00;;
67352;SDS011;54238;52.278;21.056;2023-02-15T12:55:32;43.40;;;23.70;;
67352;SDS011;54238;52.278;21.056;2023-02-15T12:58:21;42.30;;;18.90;;
67352;SDS011;54238;52.278;21.056;2023-02-15T13:06:32;45.70;;;23.00;;
67352;SDS011;54238;52.278;21.056;2023-02-15T13:09:25;35.40;;;18.70;;
67352;SDS011;54238;52.278;21.056;2023-02-15T13:15:23;42.00;;;22.80;;
67352;SDS011;54238;52.278;21.056;2023-02-15T13:17:59;39.60;;;21.10;;
67352;SDS011;54238;52.278;21.056;2023-02-15T13:20:28;46.00;;;24.10;;
67352;SDS011;54238;52.278;21.056;2023-02-15T13:23:06;32.20;;;18.90;;
67352;SDS011;54238;52.278;21.056;2023-02-15T13:25:48;42.80;;;21.90;;
67352;SDS011;54238;52.278;21.056;2023-02-15T13:28:20;56.30;;;26.70;;
67352;SDS011;54238;52.278;21.056;2023-02-15T13:30:51;49.80;;;24.70;;
67352;SDS011;54238;52.278;21.056;2023-02-15T13:41:16;42.50;;;22.10;;
67352;SDS011;54238;52.278;21.056;2023-02-15T13:52:47;49.20;;;26.60;;
67352;SDS011;54238;52.278;21.056;2023-02-15T13:55:44;46.80;;;25.30;;
67352;SDS011;54238;52.278;21.056;2023-02-15T13:58:41;35.10;;;19.90;;
67352;SDS011;54238;52.278;21.056;2023-02-15T14:01:34;38.10;;;20.80;;
67352;SDS011;54238;52.278;21.056;2023-02-15T14:07:16;42.30;;;21.20;;
67352;SDS011;54238;52.278;21.056;2023-02-15T14:13:03;46.10;;;23.40;;
67352;SDS011;54238;52.278;21.056;2023-02-15T14:15:49;46.40;;;24.30;;
67352;SDS011;54238;52.278;21.056;2023-02-15T14:21:18;44.90;;;23.40;;
67352;SDS011;54238;52.278;21.056;2023-02-15T14:29:52;43.10;;;21.30;;
67352;SDS011;54238;52.278;21.056;2023-02-15T14:32:32;58.50;;;27.70;;
67352;SDS011;54238;52.278;21.056;2023-02-15T14:35:20;44.10;;;21.10;;
67352;SDS011;54238;52.278;21.056;2023-02-15T14:40:51;49.60;;;24.90;;
67352;SDS011;54238;52.278;21.056;2023-02-15T14:49:33;39.70;;;22.30;;
67352;SDS011;54238;52.278;21.056;2023-02-15T14:52:09;50.90;;;24.40;;
67352;SDS011;54238;52.278;21.056;2023-02-15T14:54:52;49.70;;;23.30;;
67352;SDS011;54238;52.278;21.056;2023-02-15T14:57:25;53.20;;;25.50;;
67352;SDS011;54238;52.278;21.056;2023-02-15T15:00:02;54.40;;;27.30;;
67352;SDS011;54238;52.278;21.056;2023-02-15T15:03:23;57.00;;;26.90;;
67352;SDS011;54238;52.278;21.056;2023-02-15T15:08:34;53.10;;;26.20;;
67352;SDS011;54238;52.278;21.056;2023-02-15T15:13:59;44.70;;;22.00;;
67352;SDS011;54238;52.278;21.056;2023-02-15T15:19:10;51.20;;;25.80;;
67352;SDS011;54238;52.278;21.056;2023-02-15T15:35:37;55.70;;;27.00;;
67352;SDS011;54238;52.278;21.056;2023-02-15T15:38:54;47.10;;;24.00;;
67352;SDS011;54238;52.278;21.056;2023-02-15T15:41:41;50.50;;;24.50;;
67352;SDS011;54238;52.278;21.056;2023-02-15T15:47:48;44.30;;;22.70;;
67352;SDS011;54238;52.278;21.056;2023-02-15T15:50:20;50.40;;;24.20;;
67352;SDS011;54238;52.278;21.056;2023-02-15T15:53:21;57.60;;;29.30;;
67352;SDS011;54238;52.278;21.056;2023-02-15T15:55:56;63.10;;;29.60;;
67352;SDS011;54238;52.278;21.056;2023-02-15T15:58:32;62.20;;;27.50;;
67352;SDS011;54238;52.278;21.056;2023-02-15T16:01:12;48.10;;;23.60;;
67352;SDS011;54238;52.278;21.056;2023-02-15T16:03:49;43.30;;;19.60;;
67352;SDS011;54238;52.278;21.056;2023-02-15T16:09:26;41.70;;;21.10;;
67352;SDS011;54238;52.278;21.056;2023-02-15T16:11:57;51.80;;;23.90;;
67352;SDS011;54238;52.278;21.056;2023-02-15T16:14:35;46.60;;;22.30;;
67352;SDS011;54238;52.278;21.056;2023-02-15T16:17:08;45.40;;;22.60;;
67352;SDS011;54238;52.278;21.056;2023-02-15T16:19:44;56.90;;;25.40;;
67352;SDS011;54238;52.278;21.056;2023-02-15T16:22:25;51.00;;;26.40;;
67352;SDS011;54238;52.278;21.056;2023-02-15T16:25:31;49.30;;;23.60;;
67352;SDS011;54238;52.278;21.056;2023-02-15T16:28:11;44.80;;;22.50;;
67352;SDS011;54238;52.278;21.056;2023-02-15T16:30:39;53.60;;;23.20;;
67352;SDS011;54238;52.278;21.056;2023-02-15T16:33:17;42.70;;;19.90;;
67352;SDS011;54238;52.278;21.056;2023-02-15T16:35:55;52.70;;;25.90;;
67352;SDS011;54238;52.278;21.056;2023-02-15T16:43:58;50.20;;;23.60;;
67352;SDS011;54238;52.278;21.056;2023-02-15T16:46:38;63.40;;;28.10;;
67352;SDS011;54238;52.278;21.056;2023-02-15T16:49:21;48.70;;;23.60;;
67352;SDS011;54238;52.278;21.056;2023-02-15T16:52:06;62.30;;;27.60;;
67352;SDS011;54238;52.278;21.056;2023-02-15T16:54:35;58.50;;;27.20;;
67352;SDS011;54238;52.278;21.056;2023-02-15T16:57:04;59.50;;;25.80;;
67352;SDS011;54238;52.278;21.056;2023-02-15T16:59:35;51.30;;;23.10;;
67352;SDS011;54238;52.278;21.056;2023-02-15T17:02:21;54.00;;;24.40;;
67352;SDS011;54238;52.278;21.056;2023-02-15T17:11:34;59.80;;;26.80;;
67352;SDS011;54238;52.278;21.056;2023-02-15T17:17:15;47.90;;;23.80;;
67352;SDS011;54238;52.278;21.056;2023-02-15T17:19:48;52.40;;;23.80;;
67352;SDS011;54238;52.278;21.056;2023-02-15T17:22:23;53.90;;;26.00;;
67352;SDS011;54238;52.278;21.056;2023-02-15T17:24:59;58.80;;;27.60;;
67352;SDS011;54238;52.278;21.056;2023-02-15T17:27:35;53.40;;;26.40;;
67352;SDS011;54238;52.278;21.056;2023-02-15T17:30:21;53.30;;;25.70;;
67352;SDS011;54238;52.278;21.056;2023-02-15T17:33:00;43.80;;;23.90;;
67352;SDS011;54238;52.278;21.056;2023-02-15T17:35:31;50.90;;;24.20;;
67352;SDS011;54238;52.278;21.056;2023-02-15T17:38:16;43.20;;;22.40;;
67352;SDS011;54238;52.278;21.056;2023-02-15T17:40:50;50.50;;;25.00;;
67352;SDS011;54238;52.278;21.056;2023-02-15T17:43:22;53.00;;;24.40;;
67352;SDS011;54238;52.278;21.056;2023-02-15T17:45:53;57.00;;;29.10;;
67352;SDS011;54238;52.278;21.056;2023-02-15T17:48:31;53.70;;;25.50;;
67352;SDS011;54238;52.278;21.056;2023-02-15T17:51:04;48.20;;;23.60;;
67352;SDS011;54238;52.278;21.056;2023-02-15T17:53:33;57.00;;;27.70;;
67352;SDS011;54238;52.278;21.056;2023-02-15T17:56:05;59.60;;;30.10;;
67352;SDS011;54238;52.278;21.056;2023-02-15T17:58:43;56.80;;;27.00;;
67352;SDS011;54238;52.278;21.056;2023-02-15T18:01:17;50.50;;;25.70;;
67352;SDS011;54238;52.278;21.056;2023-02-15T18:04:13;46.10;;;24.50;;
67352;SDS011;54238;52.278;21.056;2023-02-15T18:07:02;48.40;;;23.30;;
67352;SDS011;54238;52.278;21.056;2023-02-15T18:09:47;48.60;;;23.60;;
67352;SDS011;54238;52.278;21.056;2023-02-15T18:12:34;50.60;;;25.40;;
67352;SDS011;54238;52.278;21.056;2023-02-15T18:15:09;53.90;;;27.50;;
67352;SDS011;54238;52.278;21.056;2023-02-15T18:17:42;54.00;;;26.90;;
67352;SDS011;54238;52.278;21.056;2023-02-15T18:20:31;43.50;;;22.70;;
67352;SDS011;54238;52.278;21.056;2023-02-15T18:23:02;54.90;;;27.80;;
67352;SDS011;54238;52.278;21.056;2023-02-15T18:25:29;51.80;;;26.10;;
67352;SDS011;54238;52.278;21.056;2023-02-15T18:28:01;62.20;;;30.70;;
67352;SDS011;54238;52.278;21.056;2023-02-15T18:30:33;55.60;;;27.70;;
67352;SDS011;54238;52.278;21.056;2023-02-15T18:33:05;50.60;;;25.00;;
67352;SDS011;54238;52.278;21.056;2023-02-15T18:35:32;48.70;;;25.40;;
67352;SDS011;54238;52.278;21.056;2023-02-15T18:38:02;54.50;;;27.60;;
67352;SDS011;54238;52.278;21.056;2023-02-15T18:40:37;44.60;;;24.10;;
67352;SDS011;54238;52.278;21.056;2023-02-15T18:43:12;57.70;;;29.10;;
67352;SDS011;54238;52.278;21.056;2023-02-15T18:45:39;39.30;;;20.90;;